createdAt,value
2022-07-28T00:01:12.619Z,46.80
2022-07-28T00:03:40.225Z,46.70
2022-07-28T00:06:06.816Z,46.63
2022-07-28T00:08:33.503Z,46.70
2022-07-28T00:11:00.121Z,46.72
2022-07-28T00:13:26.690Z,46.79
2022-07-28T00:15:53.222Z,46.87
2022-07-28T00:18:22.765Z,46.98
2022-07-28T00:20:49.367Z,47.44
2022-07-28T00:23:15.881Z,47.06
2022-07-28T00:25:44.799Z,47.49
2022-07-28T00:28:11.285Z,47.10
2022-07-28T00:30:39.818Z,47.25
2022-07-28T00:33:12.104Z,47.29
2022-07-28T00:35:52.611Z,47.35
2022-07-28T00:38:23.373Z,47.36
2022-07-28T00:41:09.008Z,47.26
2022-07-28T00:43:39.706Z,47.40
2022-07-28T00:46:10.383Z,47.48
2022-07-28T00:48:41.175Z,47.43
2022-07-28T00:51:09.402Z,47.48
2022-07-28T00:53:37.511Z,47.51
2022-07-28T00:56:06.644Z,47.42
2022-07-28T00:58:34.921Z,47.72
2022-07-28T01:01:01.555Z,47.98
2022-07-28T01:03:32.785Z,47.83
2022-07-28T01:06:22.633Z,47.66
2022-07-28T01:09:22.934Z,47.63
2022-07-28T01:12:17.022Z,47.44
2022-07-28T01:15:09.078Z,47.54
2022-07-28T01:17:42.041Z,47.88
2022-07-28T01:20:12.784Z,47.93
2022-07-28T01:22:53.309Z,47.79
2022-07-28T01:25:24.472Z,47.64
2022-07-28T01:28:02.965Z,47.61
2022-07-28T01:30:36.995Z,47.72
2022-07-28T01:33:17.267Z,48.07
2022-07-28T01:35:50.370Z,48.14
2022-07-28T01:38:18.750Z,47.87
2022-07-28T01:40:57.058Z,47.90
2022-07-28T01:43:26.474Z,48.27
2022-07-28T01:48:43.280Z,48.47
2022-07-28T01:51:10.212Z,48.38
2022-07-28T01:53:39.964Z,48.76
2022-07-28T01:56:07.562Z,48.52
2022-07-28T01:58:42.544Z,48.54
2022-07-28T02:01:10.563Z,48.55
2022-07-28T02:03:38.798Z,48.98
2022-07-28T02:06:19.755Z,48.95
2022-07-28T02:08:49.885Z,48.91
2022-07-28T02:11:35.265Z,49.16
2022-07-28T02:14:02.606Z,48.89
2022-07-28T02:16:33.533Z,48.98
2022-07-28T02:19:01.056Z,49.15
2022-07-28T02:21:30.181Z,49.11
2022-07-28T02:23:58.695Z,49.26
2022-07-28T02:26:32.923Z,49.24
2022-07-28T02:29:01.787Z,49.60
2022-07-28T02:31:44.087Z,49.34
2022-07-28T02:34:12.888Z,49.64
2022-07-28T02:36:51.632Z,49.64
2022-07-28T02:39:22.361Z,49.51
2022-07-28T02:41:51.621Z,49.83
2022-07-28T02:44:21.954Z,50.02
2022-07-28T02:46:52.097Z,50.12
2022-07-28T02:49:24.187Z,50.08
2022-07-28T02:51:52.729Z,50.08
2022-07-28T02:54:20.336Z,50.14
2022-07-28T02:56:53.354Z,50.30
2022-07-28T02:59:22.708Z,50.61
2022-07-28T03:01:52.182Z,50.64
2022-07-28T03:04:39.034Z,50.55
2022-07-28T03:07:13.720Z,50.65
2022-07-28T03:09:42.127Z,50.70
2022-07-28T03:12:09.849Z,50.69
2022-07-28T03:14:41.040Z,50.53
2022-07-28T03:17:11.779Z,50.64
2022-07-28T03:19:41.112Z,50.66
2022-07-28T03:22:10.518Z,50.74
2022-07-28T03:24:42.612Z,51.16
2022-07-28T03:27:20.814Z,50.90
2022-07-28T03:29:51.036Z,51.19
2022-07-28T03:32:21.191Z,51.03
2022-07-28T03:34:48.576Z,51.23
2022-07-28T03:37:20.769Z,51.29
2022-07-28T03:39:50.713Z,51.38
2022-07-28T03:42:19.061Z,51.19
2022-07-28T03:44:50.917Z,51.27
2022-07-28T03:47:25.933Z,51.16
2022-07-28T03:49:54.870Z,51.50
2022-07-28T03:52:22.599Z,51.52
2022-07-28T03:54:52.785Z,51.27
2022-07-28T03:57:19.894Z,51.28
2022-07-28T03:59:49.943Z,51.54
2022-07-28T04:02:19.630Z,51.47
2022-07-28T04:04:46.299Z,51.29
2022-07-28T04:07:13.505Z,51.60
2022-07-28T04:09:43.237Z,51.71
2022-07-28T04:12:10.014Z,51.79
2022-07-28T04:14:36.620Z,51.61
2022-07-28T04:17:03.219Z,51.68
2022-07-28T04:19:29.832Z,51.80
2022-07-28T04:21:56.450Z,51.72
2022-07-28T04:24:23.326Z,51.62
2022-07-28T04:26:50.117Z,51.97
2022-07-28T04:29:27.530Z,52.00
2022-07-28T04:31:54.773Z,52.08
2022-07-28T04:34:21.357Z,52.15
2022-07-28T04:36:47.962Z,51.83
2022-07-28T04:39:14.686Z,51.77
2022-07-28T04:41:41.774Z,51.47
2022-07-28T04:46:51.184Z,51.91
2022-07-28T04:49:20.223Z,52.03
2022-07-28T04:51:53.313Z,52.06
2022-07-28T04:54:26.683Z,51.94
2022-07-28T04:56:53.471Z,52.18
2022-07-28T04:59:20.049Z,52.00
2022-07-28T05:04:35.687Z,51.78
2022-07-28T05:23:59.421Z,51.80
2022-07-28T05:26:28.434Z,51.76
2022-07-28T05:28:55.404Z,51.73
2022-07-28T05:31:21.970Z,51.89
2022-07-28T05:33:48.510Z,51.67
2022-07-28T05:36:15.577Z,51.75
2022-07-28T05:38:42.119Z,52.12
2022-07-28T05:41:08.937Z,51.95
2022-07-28T05:43:37.807Z,51.56
2022-07-28T05:46:05.615Z,51.66
2022-07-28T05:48:32.100Z,51.78
2022-07-28T05:50:58.589Z,51.40
2022-07-28T05:53:25.038Z,51.56
2022-07-28T05:56:00.543Z,51.33
2022-07-28T05:58:28.628Z,51.60
2022-07-28T06:00:58.559Z,51.50
2022-07-28T06:03:25.048Z,51.74
2022-07-28T06:06:00.761Z,51.79
2022-07-28T06:08:40.656Z,51.70
2022-07-28T06:11:11.342Z,51.36
2022-07-28T06:13:38.847Z,51.20
2022-07-28T06:16:12.614Z,51.54
2022-07-28T06:18:39.773Z,51.41
2022-07-28T06:21:07.282Z,51.38
2022-07-28T06:23:33.803Z,51.43
2022-07-28T06:26:00.634Z,51.33
2022-07-28T06:28:27.090Z,51.39
2022-07-28T06:30:53.789Z,51.11
2022-07-28T06:33:20.544Z,51.07
2022-07-28T06:35:51.454Z,50.85
2022-07-28T06:38:20.152Z,51.12
2022-07-28T06:40:47.097Z,50.71
2022-07-28T06:43:14.605Z,50.85
2022-07-28T06:45:41.291Z,50.76
2022-07-28T06:48:08.982Z,50.74
2022-07-28T06:50:39.093Z,50.72
2022-07-28T06:53:05.755Z,51.07
2022-07-28T06:55:35.457Z,51.17
2022-07-28T06:58:05.309Z,51.16
2022-07-28T07:00:32.071Z,50.93
2022-07-28T07:03:00.611Z,50.98
2022-07-28T07:05:29.865Z,50.87
2022-07-28T07:07:56.320Z,50.90
2022-07-28T07:10:22.866Z,51.20
2022-07-28T07:12:49.413Z,51.09
2022-07-28T07:15:15.865Z,50.71
2022-07-28T07:17:42.397Z,50.63
2022-07-28T07:20:09.577Z,50.40
2022-07-28T07:22:42.051Z,50.74
2022-07-28T07:25:10.241Z,50.30
2022-07-28T07:27:36.762Z,50.33
2022-07-28T07:30:05.520Z,50.34
2022-07-28T07:32:31.990Z,50.48
2022-07-28T07:34:58.475Z,50.75
2022-07-28T07:37:24.971Z,50.54
2022-07-28T07:39:51.573Z,50.56
2022-07-28T07:42:18.204Z,49.94
2022-07-28T07:44:50.127Z,50.05
2022-07-28T07:47:17.100Z,49.90
2022-07-28T07:49:45.989Z,49.59
2022-07-28T07:52:12.906Z,49.97
2022-07-28T07:54:39.353Z,49.82
2022-07-28T07:57:05.799Z,49.61
2022-07-28T07:59:32.257Z,50.21
2022-07-28T08:01:58.755Z,49.77
2022-07-28T08:04:25.521Z,49.65
2022-07-28T08:06:52.791Z,49.42
2022-07-28T08:09:20.096Z,49.63
2022-07-28T08:11:46.542Z,49.14
2022-07-28T08:14:13.298Z,49.25
2022-07-28T08:16:40.006Z,49.33
2022-07-28T08:19:06.582Z,49.46
2022-07-28T08:21:35.363Z,49.10
2022-07-28T08:24:01.809Z,49.43
2022-07-28T08:26:31.162Z,49.15
2022-07-28T08:28:57.616Z,49.43
2022-07-28T08:31:24.231Z,49.29
2022-07-28T08:33:53.940Z,49.14
2022-07-28T08:36:21.892Z,48.79
2022-07-28T08:38:48.362Z,48.73
2022-07-28T08:41:23.543Z,48.50
2022-07-28T08:43:52.650Z,48.34
2022-07-28T08:46:19.923Z,48.59
2022-07-28T08:48:47.673Z,48.34
2022-07-28T08:51:15.160Z,48.34
2022-07-28T08:53:42.803Z,48.10
2022-07-28T08:56:12.712Z,48.06
2022-07-28T08:58:39.448Z,48.39
2022-07-28T09:01:08.463Z,48.27
2022-07-28T09:03:35.137Z,47.42
2022-07-28T09:06:01.953Z,46.52
2022-07-28T09:08:28.461Z,46.62
2022-07-28T09:10:55.266Z,46.05
2022-07-28T09:13:22.103Z,46.66
2022-07-28T09:15:48.617Z,46.42
2022-07-28T09:18:16.474Z,45.71
2022-07-28T09:20:43.969Z,45.64
2022-07-28T09:23:42.678Z,45.45
2022-07-28T09:26:12.109Z,44.91
2022-07-28T09:28:58.268Z,45.07
2022-07-28T09:31:27.459Z,45.29
2022-07-28T09:33:56.642Z,44.94
2022-07-28T09:36:23.102Z,44.59
2022-07-28T09:38:49.598Z,44.54
2022-07-28T09:41:18.905Z,44.52
2022-07-28T09:43:49.769Z,43.82
2022-07-28T09:46:22.781Z,44.17
2022-07-28T09:48:49.627Z,44.50
2022-07-28T09:51:18.449Z,43.81
2022-07-28T09:53:45.234Z,43.29
2022-07-28T09:56:12.901Z,43.13
2022-07-28T09:58:40.063Z,43.21
2022-07-28T10:01:15.530Z,43.06
2022-07-28T10:03:43.482Z,42.60
2022-07-28T10:06:15.331Z,42.50
2022-07-28T10:08:46.695Z,42.50
2022-07-28T10:11:15.607Z,42.25
2022-07-28T10:14:13.585Z,42.11
2022-07-28T10:16:44.301Z,41.83
2022-07-28T10:19:10.792Z,41.58
2022-07-28T10:21:44.312Z,41.31
2022-07-28T10:24:15.066Z,41.70
2022-07-28T10:26:45.904Z,41.51
2022-07-28T10:29:14.434Z,41.08
2022-07-28T10:31:55.682Z,40.93
2022-07-28T10:34:25.519Z,40.42
2022-07-28T10:36:55.843Z,40.12
2022-07-28T10:39:24.162Z,40.18
2022-07-28T10:41:50.967Z,40.17
2022-07-28T10:44:19.863Z,39.13
2022-07-28T10:46:47.138Z,39.38
2022-07-28T10:49:14.339Z,38.59
2022-07-28T10:52:00.148Z,38.77
2022-07-28T10:54:30.067Z,38.27
2022-07-28T10:56:59.031Z,38.57
2022-07-28T10:59:58.611Z,38.48
2022-07-28T11:02:45.334Z,38.78
2022-07-28T11:05:26.415Z,37.95
2022-07-28T11:07:53.025Z,38.17
2022-07-28T11:10:20.373Z,38.72
2022-07-28T11:12:49.004Z,38.78
2022-07-28T11:15:28.316Z,38.21
2022-07-28T11:18:04.877Z,38.31
2022-07-28T11:20:53.333Z,38.38
2022-07-28T11:23:38.574Z,38.04
2022-07-28T11:26:20.625Z,38.05
2022-07-28T11:29:08.423Z,38.02
2022-07-28T11:31:43.850Z,38.38
2022-07-28T11:34:14.611Z,38.74
2022-07-28T11:37:05.393Z,38.16
2022-07-28T11:39:42.691Z,38.27
2022-07-28T11:42:30.700Z,37.96
2022-07-28T11:45:24.349Z,38.20
2022-07-28T11:48:15.745Z,37.69
2022-07-28T11:50:42.768Z,37.55
2022-07-28T11:53:10.096Z,37.09
2022-07-28T11:55:55.663Z,37.34
2022-07-28T11:58:25.511Z,36.78
2022-07-28T12:01:13.353Z,37.07
2022-07-28T12:03:50.233Z,36.79
2022-07-28T12:06:26.231Z,36.69
2022-07-28T12:09:02.109Z,35.98
2022-07-28T12:11:33.261Z,36.12
2022-07-28T12:14:00.601Z,35.62
2022-07-28T12:16:28.170Z,35.63
2022-07-28T12:18:55.177Z,36.10
2022-07-28T12:21:46.040Z,35.59
2022-07-28T12:24:16.572Z,35.10
2022-07-28T12:26:49.195Z,35.49
2022-07-28T12:29:16.880Z,35.52
2022-07-28T12:31:54.333Z,34.83
2022-07-28T12:34:21.203Z,35.96
2022-07-28T12:36:51.180Z,35.71
2022-07-28T12:39:17.886Z,35.36
2022-07-28T12:41:44.501Z,35.31
2022-07-28T12:44:12.083Z,35.50
2022-07-28T12:46:38.889Z,35.76
2022-07-28T12:49:20.482Z,35.48
2022-07-28T12:51:47.259Z,36.23
2022-07-28T12:54:14.647Z,35.46
2022-07-28T12:56:48.988Z,35.24
2022-07-28T12:59:15.944Z,35.45
2022-07-28T13:01:50.508Z,35.16
2022-07-28T13:04:36.683Z,35.50
2022-07-28T13:07:09.577Z,35.12
2022-07-28T13:09:39.555Z,35.50
2022-07-28T13:12:36.469Z,35.11
2022-07-28T13:15:16.033Z,35.20
2022-07-28T13:17:50.590Z,35.76
2022-07-28T13:20:17.158Z,35.23
2022-07-28T13:22:46.620Z,35.42
2022-07-28T13:25:13.879Z,35.57
2022-07-28T13:27:40.691Z,35.26
2022-07-28T13:30:09.782Z,34.71
2022-07-28T13:32:36.485Z,35.09
2022-07-28T13:35:04.347Z,34.55
2022-07-28T13:37:30.799Z,34.59
2022-07-28T13:39:57.364Z,34.94
2022-07-28T13:42:23.965Z,34.64
2022-07-28T13:44:50.555Z,35.61
2022-07-28T13:47:17.961Z,34.81
2022-07-28T13:49:44.434Z,34.88
2022-07-28T13:52:17.040Z,34.52
2022-07-28T13:54:55.952Z,34.35
2022-07-28T13:57:22.403Z,34.21
2022-07-28T13:59:49.013Z,34.14
2022-07-28T14:02:16.318Z,34.71
2022-07-28T14:04:46.092Z,34.45
2022-07-28T14:07:21.354Z,34.25
2022-07-28T14:09:50.038Z,34.25
2022-07-28T14:12:16.756Z,33.71
2022-07-28T14:14:48.545Z,34.25
2022-07-28T14:17:39.977Z,33.82
2022-07-28T14:20:03.484Z,34.09
2022-07-28T14:22:29.928Z,34.28
2022-07-28T14:24:56.383Z,34.49
2022-07-28T14:27:28.652Z,34.56
2022-07-28T14:29:55.729Z,34.53
2022-07-28T14:32:22.615Z,34.63
2022-07-28T14:34:49.155Z,35.20
2022-07-28T14:37:15.620Z,35.12
2022-07-28T14:39:42.227Z,35.22
2022-07-28T14:42:10.236Z,34.90
2022-07-28T14:44:36.677Z,34.88
2022-07-28T14:47:03.469Z,35.34
2022-07-28T14:49:30.031Z,35.36
2022-07-28T14:51:57.464Z,35.53
2022-07-28T14:54:23.930Z,34.93
2022-07-28T14:56:50.404Z,34.87
2022-07-28T14:59:16.859Z,35.42
2022-07-28T15:01:43.465Z,35.39
2022-07-28T15:04:12.382Z,35.58
2022-07-28T15:06:40.344Z,35.41
2022-07-28T15:09:06.826Z,36.03
2022-07-28T15:11:33.266Z,36.22
2022-07-28T15:13:59.801Z,36.08
2022-07-28T15:16:26.392Z,35.91
2022-07-28T15:18:53.234Z,35.83
2022-07-28T15:21:19.856Z,35.84
2022-07-28T15:23:46.296Z,35.80
2022-07-28T15:26:12.939Z,36.17
2022-07-28T15:28:39.690Z,36.42
2022-07-28T15:31:08.410Z,36.15
2022-07-28T15:33:38.952Z,35.84
2022-07-28T15:36:14.511Z,35.81
2022-07-28T15:38:40.955Z,35.99
2022-07-28T15:41:07.485Z,35.21
2022-07-28T15:43:33.985Z,35.65
2022-07-28T15:46:04.478Z,34.84
2022-07-28T15:48:31.005Z,35.76
2022-07-28T15:50:57.651Z,35.89
2022-07-28T15:53:24.248Z,35.13
2022-07-28T15:55:51.915Z,35.54
2022-07-28T15:58:19.446Z,35.38
2022-07-28T16:00:46.080Z,35.44
2022-07-28T16:03:12.912Z,35.26
2022-07-28T16:05:39.683Z,35.11
2022-07-28T16:08:06.277Z,34.84
2022-07-28T16:10:32.885Z,34.88
2022-07-28T16:12:59.350Z,35.25
2022-07-28T16:15:26.891Z,35.21
2022-07-28T16:17:54.287Z,36.01
2022-07-28T16:20:20.822Z,35.24
2022-07-28T16:22:47.512Z,35.60
2022-07-28T16:25:16.914Z,36.07
2022-07-28T16:27:44.465Z,35.61
2022-07-28T16:30:11.486Z,35.34
2022-07-28T16:32:38.580Z,35.43
2022-07-28T16:35:06.642Z,35.18
2022-07-28T16:37:35.057Z,34.99
2022-07-28T16:40:03.372Z,34.95
2022-07-28T16:42:29.822Z,34.79
2022-07-28T16:44:56.529Z,34.77
2022-07-28T16:47:23.109Z,35.07
2022-07-28T16:49:49.556Z,35.05
2022-07-28T16:52:16.015Z,35.39
2022-07-28T16:54:42.835Z,35.48
2022-07-28T16:57:09.405Z,35.19
2022-07-28T16:59:37.075Z,35.46
2022-07-28T17:02:14.356Z,35.57
2022-07-28T17:04:40.833Z,35.47
2022-07-28T17:07:08.189Z,35.44
2022-07-28T17:09:34.651Z,35.92
2022-07-28T17:12:01.100Z,36.02
2022-07-28T17:14:27.592Z,35.83
2022-07-28T17:16:54.196Z,35.92
2022-07-28T17:19:22.045Z,36.24
2022-07-28T17:21:48.588Z,36.24
2022-07-28T17:24:15.794Z,36.45
2022-07-28T17:27:35.363Z,36.20
2022-07-28T17:29:29.522Z,36.53
2022-07-28T17:31:56.087Z,36.70
2022-07-28T17:34:22.549Z,36.55
2022-07-28T17:36:50.836Z,36.55
2022-07-28T17:39:17.283Z,36.53
2022-07-28T17:41:43.724Z,36.74
2022-07-28T17:44:10.224Z,36.72
2022-07-28T17:46:36.786Z,36.79
2022-07-28T17:49:05.113Z,36.77
2022-07-28T17:51:32.081Z,37.25
2022-07-28T17:53:58.524Z,37.02
2022-07-28T17:56:25.967Z,37.32
2022-07-28T17:58:52.559Z,37.37
2022-07-28T18:01:19.046Z,37.53
2022-07-28T18:03:58.832Z,37.21
2022-07-28T18:06:28.783Z,37.52
2022-07-28T18:08:55.213Z,37.52
2022-07-28T18:11:21.814Z,37.53
2022-07-28T18:14:03.840Z,37.67
2022-07-28T18:16:34.784Z,37.98
2022-07-28T18:19:02.204Z,38.10
2022-07-28T18:21:28.735Z,38.09
2022-07-28T18:23:55.193Z,38.06
2022-07-28T18:26:21.985Z,38.09
2022-07-28T18:28:48.688Z,38.37
2022-07-28T18:31:15.192Z,38.60
2022-07-28T18:33:41.770Z,38.62
2022-07-28T18:36:08.244Z,38.66
2022-07-28T18:38:34.695Z,38.69
2022-07-28T18:41:01.142Z,39.43
2022-07-28T18:43:27.743Z,39.37
2022-07-28T18:45:54.417Z,39.52
2022-07-28T18:48:21.000Z,39.54
2022-07-28T18:50:47.434Z,39.74
2022-07-28T18:53:13.886Z,39.98
2022-07-28T18:55:40.337Z,40.28
2022-07-28T18:58:06.855Z,40.39
2022-07-28T19:00:33.705Z,39.96
2022-07-28T19:03:00.288Z,40.44
2022-07-28T19:05:27.142Z,40.55
2022-07-28T19:08:04.298Z,40.33
2022-07-28T19:10:32.076Z,40.74
2022-07-28T19:12:58.524Z,40.97
2022-07-28T19:15:25.014Z,41.42
2022-07-28T19:18:10.576Z,41.46
2022-07-28T19:20:40.844Z,41.43
2022-07-28T19:23:07.280Z,41.24
2022-07-28T19:25:35.856Z,41.43
2022-07-28T19:28:02.689Z,41.15
2022-07-28T19:30:31.854Z,41.23
2022-07-28T19:32:58.330Z,41.79
2022-07-28T19:35:24.799Z,41.42
2022-07-28T19:37:51.660Z,41.90
2022-07-28T19:40:48.065Z,41.86
2022-07-28T20:33:01.344Z,43.13
2022-07-28T20:35:53.231Z,42.79
2022-07-28T20:38:23.266Z,42.87
2022-07-28T20:40:51.669Z,42.71
2022-07-28T20:43:36.404Z,43.11
2022-07-28T20:46:05.596Z,42.59
2022-07-28T20:48:36.435Z,43.01
2022-07-28T20:51:05.072Z,42.86
2022-07-28T20:53:33.078Z,43.11
2022-07-28T20:56:02.510Z,43.12
2022-07-28T20:58:29.268Z,43.60
2022-07-28T21:00:57.428Z,43.91
2022-07-28T21:03:25.354Z,43.95
2022-07-28T21:05:52.015Z,43.94
2022-07-28T21:08:18.721Z,43.84
2022-07-28T21:10:45.757Z,43.65
2022-07-28T21:13:12.412Z,44.30
2022-07-28T21:15:39.523Z,43.95
2022-07-28T21:18:06.166Z,43.64
2022-07-28T21:20:33.100Z,43.86
2022-07-28T21:22:59.641Z,43.83
2022-07-28T21:25:26.286Z,43.31
2022-07-28T21:28:11.710Z,43.25
2022-07-28T21:30:38.561Z,43.61
2022-07-28T21:33:05.416Z,43.41
2022-07-28T21:35:32.002Z,43.06
2022-07-28T21:37:58.505Z,43.42
2022-07-28T21:40:25.717Z,43.17
2022-07-28T21:42:52.671Z,42.96
2022-07-28T21:45:19.282Z,43.29
2022-07-28T21:47:46.035Z,43.18
2022-07-28T21:50:12.807Z,42.84
2022-07-28T21:52:39.562Z,43.06
2022-07-28T21:55:08.489Z,42.91
2022-07-28T21:57:35.645Z,43.40
2022-07-28T22:00:03.624Z,43.28
2022-07-28T22:02:32.394Z,43.17
2022-07-28T22:04:59.422Z,43.07
2022-07-28T22:07:25.954Z,43.09
2022-07-28T22:09:52.621Z,43.07
2022-07-28T22:12:19.560Z,43.14
2022-07-28T22:14:46.050Z,43.14
2022-07-28T22:17:12.704Z,43.35
2022-07-28T22:19:39.518Z,43.43
2022-07-28T22:22:06.022Z,43.22
2022-07-28T22:24:32.546Z,43.56
2022-07-28T22:26:59.423Z,43.42
2022-07-28T22:29:26.044Z,43.61
2022-07-28T22:31:57.287Z,43.26
2022-07-28T22:34:25.890Z,43.38
2022-07-28T22:36:52.375Z,43.56
2022-07-28T22:39:18.925Z,43.58
2022-07-28T22:41:46.976Z,43.65
2022-07-28T22:44:13.899Z,43.92
2022-07-28T22:46:41.055Z,43.73
2022-07-28T22:49:07.731Z,43.77
2022-07-28T22:51:34.352Z,44.27
2022-07-28T22:54:02.340Z,43.93
2022-07-28T22:56:36.366Z,44.36
2022-07-28T22:59:04.239Z,44.18
2022-07-28T23:01:30.913Z,44.16
2022-07-28T23:03:58.309Z,44.15
2022-07-28T23:06:24.976Z,44.11
2022-07-28T23:08:51.484Z,44.21
2022-07-28T23:11:17.933Z,44.00
2022-07-28T23:13:44.464Z,43.85
2022-07-28T23:16:12.137Z,44.19
2022-07-28T23:18:44.830Z,43.91
2022-07-28T23:21:37.649Z,43.38
2022-07-28T23:24:04.983Z,43.68
2022-07-28T23:26:34.668Z,44.39
2022-07-28T23:29:01.185Z,44.06
2022-07-28T23:31:27.753Z,44.72
2022-07-28T23:33:57.557Z,45.82
2022-07-28T23:36:26.854Z,45.14
2022-07-28T23:38:55.956Z,47.24
2022-07-28T23:41:22.535Z,47.35
2022-07-28T23:43:49.013Z,48.09
2022-07-28T23:46:15.538Z,47.94
2022-07-28T23:48:42.464Z,47.71
2022-07-28T23:51:09.577Z,47.83
2022-07-28T23:53:37.326Z,47.88
2022-07-28T23:56:04.051Z,47.85
2022-07-28T23:58:30.544Z,48.43
